< Cyclone 199009 1990 Season Cyclone 199011 >
Cyclone 199010 (IVOR)
General InformationTrack Information on Google MapsDetailed Wind InformationList of All Images || ResourceGoogle EarthGE AnimationAtom FeedGeoJSON
Detalied Best Track (Time Zone = UTC)
Year Month Day Hour Lat. Long. Pressure (hPa) Wind (kt) Class Image Chart
1990 3 16 00 -15.7 160.8 995 30 2 Image --
1990 3 16 06 -16.7 158.8 995 30 2 Image --
1990 3 16 12 -16.9 156.8 992 40 3 Image --
1990 3 16 18 -16.5 155.2 992 45 3 Image --
1990 3 17 00 -16.0 153.8 990 50 4 Image --
1990 3 17 06 -15.2 152.1 990 50 4 Image --
1990 3 17 12 -14.3 150.7 984 50 4 Image --
1990 3 17 18 -14.1 150.1 980 60 4 Image --
1990 3 18 00 -14.0 148.9 976 65 5 Image --
1990 3 18 06 -13.9 147.9 971 70 5 Image --
1990 3 18 12 -13.5 147.5 969 70 5 Image --
1990 3 18 18 -13.4 146.9 966 75 5 Image --
1990 3 19 00 -13.9 146.0 965 75 5 Image --
1990 3 19 06 -14.0 145.0 970 80 5 Image --
1990 3 19 12 -14.0 144.2 980 90 5 Image --
1990 3 19 18 -13.9 143.4 983 55 4 Image --
1990 3 20 00 -13.7 142.8 986 50 4 Image --
1990 3 20 06 -13.8 142.4 988 45 3 Image --
1990 3 20 12 -13.9 141.8 988 45 3 Image --
1990 3 20 18 -13.9 141.5 986 50 4 Image --
1990 3 21 00 -14.1 141.5 984 50 4 Image --
1990 3 21 06 -14.7 141.5 988 45 3 Image --
1990 3 21 12 -15.0 141.5 992 40 3 Image --
1990 3 21 18 -15.1 141.9 994 35 3 Image --
1990 3 22 00 -15.2 142.7 1000 30 2 Image --
1990 3 22 06 -15.4 143.6 998 30 2 Image --
1990 3 22 12 -15.6 144.3 999 30 2 Image --
1990 3 22 18 -16.1 145.1 999 30 2 Image --
1990 3 23 00 -16.8 145.9 1001 25 2 Image --
1990 3 23 06 -17.0 145.4 999 25 2 Image --
1990 3 23 12 -16.9 146.2 1001 25 2 Image --
1990 3 23 18 -17.2 146.9 999 25 2 Image --
1990 3 24 00 -18.2 146.9 1000 25 2 Image --
1990 3 24 06 -19.3 147.3 1000 25 2 Image --
1990 3 24 12 -19.8 147.5 1002 20 2 Image --
1990 3 24 18 -20.0 147.9 1002 20 2 Image --
1990 3 25 00 -20.6 148.1 1005 15 2 Image --
1990 3 25 06 -20.8 148.8 1005 15 2 Image --
1990 3 25 12 -20.5 149.6 1006 15 2 Image --
1990 3 25 18 -20.9 149.9 1006 15 2 Image --
1990 3 26 00 -21.5 149.3 1008 15 2 Image --
1990 3 26 06 -21.9 147.9 1008 15 2 Image --
1990 3 26 12 -21.8 146.8 1008 15 2 Image --
< Cyclone 199009 1990 Season Cyclone 199011 >

Help